createdAt,value
2023-05-19T00:02:21.001Z,13.98
2023-05-19T00:05:24.999Z,13.93
2023-05-19T00:08:31.193Z,13.86
2023-05-19T00:11:38.293Z,13.89
2023-05-19T00:14:40.997Z,13.71
2023-05-19T00:17:43.710Z,13.83
2023-05-19T00:20:46.621Z,13.69
2023-05-19T00:23:49.754Z,13.66
2023-05-19T00:26:52.163Z,13.80
2023-05-19T00:29:54.890Z,13.75
2023-05-19T00:32:57.466Z,13.54
2023-05-19T00:36:03.377Z,13.71
2023-05-19T00:39:05.797Z,13.75
2023-05-19T00:42:09.030Z,13.68
2023-05-19T00:45:12.325Z,13.75
2023-05-19T00:48:14.941Z,13.73
2023-05-19T00:51:17.846Z,13.69
2023-05-19T00:54:21.390Z,13.68
2023-05-19T00:57:23.963Z,13.64
2023-05-19T01:00:26.697Z,13.64
2023-05-19T01:03:35.227Z,13.57
2023-05-19T01:06:39.106Z,13.48
2023-05-19T01:09:41.506Z,13.50
2023-05-19T01:12:44.326Z,13.48
2023-05-19T01:16:12.763Z,13.66
2023-05-19T01:19:49.714Z,13.62
2023-05-19T01:23:24.062Z,13.65
2023-05-19T01:26:42.429Z,13.64
2023-05-19T01:30:09.578Z,13.64
2023-05-19T01:33:14.757Z,13.62
2023-05-19T01:36:19.305Z,13.60
2023-05-19T01:39:23.145Z,13.54
2023-05-19T01:42:27.293Z,13.58
2023-05-19T01:45:32.547Z,13.47
2023-05-19T01:48:34.993Z,13.62
2023-05-19T01:51:37.698Z,13.63
2023-05-19T01:54:40.787Z,13.50
2023-05-19T01:58:06.328Z,13.63
2023-05-19T02:01:26.785Z,13.48
2023-05-19T02:04:42.746Z,13.47
2023-05-19T02:07:56.091Z,13.58
2023-05-19T02:11:14.980Z,13.58
2023-05-19T02:14:25.087Z,13.48
2023-05-19T02:17:33.722Z,13.53
2023-05-19T02:20:36.173Z,13.58
2023-05-19T02:23:41.316Z,13.56
2023-05-19T02:26:44.082Z,13.59
2023-05-19T02:29:46.757Z,13.49
2023-05-19T02:32:49.196Z,13.53
2023-05-19T02:35:51.942Z,13.39
2023-05-19T02:38:54.323Z,13.50
2023-05-19T02:41:57.010Z,13.49
2023-05-19T02:45:00.490Z,13.49
2023-05-19T02:48:03.348Z,13.39
2023-05-19T02:51:05.840Z,13.45
2023-05-19T02:54:08.557Z,13.37
2023-05-19T02:57:11.244Z,13.51
2023-05-19T03:00:14.518Z,13.49
2023-05-19T03:03:17.147Z,13.50
2023-05-19T03:06:20.104Z,13.52
2023-05-19T03:09:22.462Z,13.54
2023-05-19T03:12:25.269Z,13.52
2023-05-19T03:15:28.042Z,13.50
2023-05-19T03:18:31.078Z,13.53
2023-05-19T03:21:34.541Z,13.52
2023-05-19T03:24:37.266Z,13.51
2023-05-19T03:27:39.724Z,13.40
2023-05-19T03:30:42.704Z,13.48
2023-05-19T03:33:46.261Z,13.37
2023-05-19T03:36:50.388Z,13.50
2023-05-19T03:39:52.808Z,13.52
2023-05-19T03:42:55.598Z,13.51
2023-05-19T03:45:58.635Z,13.43
2023-05-19T03:49:02.278Z,13.57
2023-05-19T03:52:05.777Z,13.56
2023-05-19T03:55:09.105Z,13.62
2023-05-19T03:58:11.518Z,13.56
2023-05-19T04:01:14.315Z,13.70
2023-05-19T04:04:17.017Z,13.74
2023-05-19T04:07:20.657Z,13.74
2023-05-19T04:10:23.327Z,13.74
2023-05-19T04:13:25.727Z,13.78
2023-05-19T04:16:28.589Z,13.71
2023-05-19T04:19:31.351Z,13.92
2023-05-19T04:22:37.193Z,13.91
2023-05-19T04:25:40.926Z,13.84
2023-05-19T04:28:44.655Z,14.02
2023-05-19T04:31:47.026Z,13.93
2023-05-19T04:34:51.777Z,13.93
2023-05-19T04:37:55.703Z,14.13
2023-05-19T04:41:01.747Z,13.99
2023-05-19T04:44:04.826Z,14.10
2023-05-19T04:47:10.026Z,14.20
2023-05-19T04:50:12.945Z,14.27
2023-05-19T04:53:18.716Z,14.30
2023-05-19T04:56:22.045Z,14.29
2023-05-19T04:59:25.432Z,14.37
2023-05-19T05:02:28.193Z,14.27
2023-05-19T05:05:31.691Z,14.27
2023-05-19T05:08:34.475Z,14.41
2023-05-19T05:11:37.544Z,14.54
2023-05-19T05:14:40.989Z,14.62
2023-05-19T05:17:44.392Z,14.62
2023-05-19T05:20:47.208Z,14.68
2023-05-19T05:23:52.039Z,14.73
2023-05-19T05:26:56.040Z,14.75
2023-05-19T05:29:59.343Z,14.86
2023-05-19T05:33:02.544Z,14.87
2023-05-19T05:36:06.244Z,14.89
2023-05-19T05:39:09.556Z,15.10
2023-05-19T05:42:12.439Z,15.29
2023-05-19T05:45:15.876Z,15.35
2023-05-19T05:48:19.003Z,15.34
2023-05-19T05:51:22.654Z,15.45
2023-05-19T05:54:25.888Z,15.56
2023-05-19T05:57:30.773Z,15.63
2023-05-19T06:00:34.742Z,15.62
2023-05-19T06:03:42.766Z,15.62
2023-05-19T06:06:45.383Z,15.62
2023-05-19T06:09:49.087Z,15.73
2023-05-19T06:12:51.773Z,15.79
2023-05-19T06:15:54.589Z,15.84
2023-05-19T06:18:59.078Z,15.80
2023-05-19T06:22:01.941Z,16.01
2023-05-19T06:25:07.029Z,16.11
2023-05-19T06:28:09.890Z,16.15
2023-05-19T06:31:13.419Z,16.25
2023-05-19T06:34:17.810Z,16.27
2023-05-19T06:37:24.077Z,16.32
2023-05-19T06:40:27.161Z,16.25
2023-05-19T06:43:30.325Z,16.35
2023-05-19T06:46:33.546Z,16.32
2023-05-19T06:49:36.708Z,16.40
2023-05-19T06:52:39.942Z,16.49
2023-05-19T06:55:57.479Z,16.58
2023-05-19T06:59:01.975Z,16.66
2023-05-19T07:02:06.017Z,16.65
2023-05-19T07:05:09.272Z,16.75
2023-05-19T07:08:12.134Z,16.88
2023-05-19T07:11:15.383Z,17.04
2023-05-19T07:14:18.439Z,17.21
2023-05-19T07:17:21.945Z,17.30
2023-05-19T07:20:24.461Z,17.46
2023-05-19T07:23:27.217Z,17.54
2023-05-19T07:26:29.800Z,17.72
2023-05-19T07:29:32.477Z,17.94
2023-05-19T07:32:35.306Z,18.14
2023-05-19T07:35:38.048Z,18.26
2023-05-19T07:38:40.572Z,18.37
2023-05-19T07:41:43.681Z,18.55
2023-05-19T07:44:46.346Z,18.80
2023-05-19T07:47:49.387Z,18.92
2023-05-19T07:50:52.994Z,19.12
2023-05-19T07:53:56.054Z,19.22
2023-05-19T07:56:58.488Z,19.57
2023-05-19T08:00:01.254Z,19.59
2023-05-19T08:03:17.736Z,19.46
2023-05-19T08:06:21.308Z,19.31
2023-05-19T08:09:23.713Z,19.83
2023-05-19T08:12:26.443Z,20.42
2023-05-19T08:15:28.859Z,20.76
2023-05-19T08:18:31.598Z,20.71
2023-05-19T08:21:34.677Z,20.69
2023-05-19T08:24:37.363Z,20.49
2023-05-19T08:27:39.711Z,20.48
2023-05-19T08:30:42.504Z,20.79
2023-05-19T08:33:45.730Z,21.44
2023-05-19T08:36:48.361Z,21.61
2023-05-19T08:39:50.781Z,21.60
2023-05-19T08:42:54.368Z,21.55
2023-05-19T08:45:59.516Z,21.48
2023-05-19T08:49:13.038Z,21.47
2023-05-19T08:52:30.417Z,21.43
2023-05-19T08:55:50.240Z,21.39
2023-05-19T08:58:53.090Z,21.48
2023-05-19T09:01:55.962Z,21.93
2023-05-19T09:04:58.919Z,22.68
2023-05-19T09:08:03.375Z,23.27
2023-05-19T09:11:06.603Z,23.86
2023-05-19T09:14:09.132Z,24.57
2023-05-19T09:17:12.035Z,25.22
2023-05-19T09:20:16.812Z,25.22
2023-05-19T09:23:19.291Z,24.84
2023-05-19T09:26:23.524Z,24.53
2023-05-19T09:29:26.177Z,24.05
2023-05-19T09:32:29.008Z,23.76
2023-05-19T09:35:31.688Z,23.27
2023-05-19T09:38:38.956Z,23.18
2023-05-19T09:41:41.578Z,23.46
2023-05-19T09:44:44.222Z,23.19
2023-05-19T09:47:46.630Z,23.02
2023-05-19T09:50:51.761Z,22.76
2023-05-19T09:53:54.341Z,23.30
2023-05-19T09:57:01.783Z,24.19
2023-05-19T10:00:24.035Z,24.12
2023-05-19T10:03:27.981Z,23.99
2023-05-19T10:06:31.724Z,23.99
2023-05-19T10:09:36.848Z,23.61
2023-05-19T10:12:40.239Z,24.19
2023-05-19T10:15:57.402Z,24.87
2023-05-19T10:19:02.561Z,25.14
2023-05-19T10:22:05.534Z,24.94
2023-05-19T10:25:09.197Z,24.72
2023-05-19T10:28:17.434Z,24.17
2023-05-19T10:31:22.657Z,23.44
2023-05-19T10:34:50.531Z,23.41
2023-05-19T10:38:48.341Z,23.60
2023-05-19T10:42:03.124Z,23.38
2023-05-19T10:45:15.312Z,23.58
2023-05-19T10:48:24.291Z,23.60
2023-05-19T10:51:34.483Z,23.52
2023-05-19T10:54:41.549Z,23.86
2023-05-19T10:58:00.601Z,24.60
2023-05-19T11:01:08.092Z,25.11
2023-05-19T11:04:15.779Z,25.27
2023-05-19T11:07:24.722Z,25.24
2023-05-19T11:10:27.288Z,24.98
2023-05-19T11:13:29.993Z,24.67
2023-05-19T11:16:32.769Z,24.50
2023-05-19T11:19:36.327Z,24.99
2023-05-19T11:22:40.167Z,25.58
2023-05-19T11:25:44.704Z,26.06
2023-05-19T11:28:48.181Z,26.25
2023-05-19T11:31:52.258Z,26.60
2023-05-19T11:34:56.140Z,26.70
2023-05-19T11:37:59.691Z,26.50
2023-05-19T11:41:03.601Z,26.12
2023-05-19T11:44:11.321Z,26.10
2023-05-19T11:47:19.286Z,26.21
2023-05-19T11:50:27.983Z,25.95
2023-05-19T11:53:33.444Z,26.19
2023-05-19T11:56:42.505Z,26.04
2023-05-19T11:59:45.895Z,25.72
2023-05-19T12:02:49.143Z,25.79
2023-05-19T12:05:52.366Z,25.82
2023-05-19T12:08:55.394Z,25.87
2023-05-19T12:11:58.658Z,26.05
2023-05-19T12:15:13.129Z,26.14
2023-05-19T12:18:20.839Z,26.42
2023-05-19T12:21:23.759Z,26.44
2023-05-19T12:24:53.062Z,26.36
2023-05-19T12:28:07.250Z,26.45
2023-05-19T12:31:11.424Z,26.30
2023-05-19T12:34:15.388Z,26.47
2023-05-19T12:37:22.258Z,26.57
2023-05-19T12:40:26.260Z,26.59
2023-05-19T12:43:29.656Z,26.66
2023-05-19T12:46:33.531Z,26.68
2023-05-19T12:49:36.762Z,26.73
2023-05-19T12:52:53.884Z,26.18
2023-05-19T12:55:59.628Z,26.64
2023-05-19T12:59:02.306Z,26.46
2023-05-19T13:02:12.496Z,26.21
2023-05-19T13:05:15.165Z,25.95
2023-05-19T13:08:24.183Z,25.92
2023-05-19T13:11:26.575Z,25.84
2023-05-19T13:14:29.774Z,25.83
2023-05-19T13:17:32.266Z,26.08
2023-05-19T13:20:36.411Z,26.00
2023-05-19T13:23:42.630Z,25.89
2023-05-19T13:26:48.212Z,25.65
2023-05-19T13:29:52.142Z,25.69
2023-05-19T13:32:57.069Z,25.73
2023-05-19T13:35:59.700Z,25.53
2023-05-19T13:39:02.814Z,25.64
2023-05-19T13:42:06.347Z,25.64
2023-05-19T13:45:09.989Z,25.49
2023-05-19T13:48:13.007Z,25.41
2023-05-19T13:51:15.596Z,25.17
2023-05-19T13:54:18.205Z,24.90
2023-05-19T13:57:21.053Z,24.67
2023-05-19T14:00:23.969Z,24.39
2023-05-19T14:03:27.232Z,24.17
2023-05-19T14:06:29.653Z,24.06
2023-05-19T14:09:32.650Z,23.96
2023-05-19T14:12:49.400Z,23.98
2023-05-19T14:15:58.835Z,24.06
2023-05-19T14:19:01.378Z,24.16
2023-05-19T14:22:05.687Z,24.18
2023-05-19T14:25:08.693Z,24.13
2023-05-19T14:28:11.405Z,24.19
2023-05-19T14:31:14.486Z,24.05
2023-05-19T14:34:21.100Z,23.98
2023-05-19T14:37:24.170Z,23.95
2023-05-19T14:40:26.987Z,23.96
2023-05-19T14:43:29.486Z,23.76
2023-05-19T14:46:32.368Z,23.73
2023-05-19T14:49:34.847Z,23.63
2023-05-19T14:52:37.618Z,23.45
2023-05-19T14:55:40.882Z,23.39
2023-05-19T14:58:43.785Z,23.31
2023-05-19T15:01:46.283Z,23.23
2023-05-19T15:04:49.001Z,23.27
2023-05-19T15:07:51.574Z,23.26
2023-05-19T15:10:54.280Z,23.22
2023-05-19T15:13:56.660Z,23.24
2023-05-19T15:16:59.375Z,23.34
2023-05-19T15:20:01.845Z,23.33
2023-05-19T15:23:04.593Z,23.29
2023-05-19T15:26:07.097Z,23.19
2023-05-19T15:29:09.782Z,23.12
2023-05-19T15:32:12.272Z,22.93
2023-05-19T15:35:15.038Z,22.89
2023-05-19T15:38:18.843Z,22.91
2023-05-19T15:41:21.910Z,22.86
2023-05-19T15:44:24.381Z,22.63
2023-05-19T15:47:27.177Z,22.66
2023-05-19T15:50:29.835Z,22.69
2023-05-19T15:53:32.714Z,22.66
2023-05-19T15:56:35.138Z,22.37
2023-05-19T15:59:37.870Z,21.58
2023-05-19T16:02:40.914Z,20.93
2023-05-19T16:05:43.840Z,20.40
2023-05-19T16:08:46.406Z,20.02
2023-05-19T16:11:49.080Z,19.74
2023-05-19T16:14:51.440Z,19.52
2023-05-19T16:17:55.071Z,19.42
2023-05-19T16:20:57.610Z,19.42
2023-05-19T16:24:00.399Z,19.24
2023-05-19T16:27:03.050Z,19.23
2023-05-19T16:30:06.633Z,19.28
2023-05-19T16:33:09.325Z,19.18
2023-05-19T16:36:12.088Z,19.16
2023-05-19T16:39:14.494Z,19.29
2023-05-19T16:42:17.177Z,19.31
2023-05-19T16:45:19.745Z,19.33
2023-05-19T16:48:22.530Z,19.29
2023-05-19T16:51:24.993Z,19.31
2023-05-19T16:54:30.037Z,19.33
2023-05-19T16:57:32.663Z,19.34
2023-05-19T17:00:35.762Z,19.40
2023-05-19T17:03:42.335Z,19.48
2023-05-19T17:06:46.486Z,19.60
2023-05-19T17:09:49.144Z,19.51
2023-05-19T17:12:51.948Z,19.61
2023-05-19T17:15:54.479Z,19.62
2023-05-19T17:18:57.280Z,19.50
2023-05-19T17:21:59.706Z,19.63
2023-05-19T17:25:02.328Z,19.60
2023-05-19T17:28:04.957Z,19.58
2023-05-19T17:31:14.810Z,19.47
2023-05-19T17:34:18.095Z,19.50
2023-05-19T17:37:23.514Z,19.39
2023-05-19T17:40:26.201Z,19.39
2023-05-19T17:43:29.385Z,19.38
2023-05-19T17:46:34.789Z,19.49
2023-05-19T17:49:37.551Z,19.41
2023-05-19T17:52:40.972Z,19.51
2023-05-19T17:55:50.914Z,19.40
2023-05-19T17:58:53.550Z,19.54
2023-05-19T18:01:56.828Z,19.38
2023-05-19T18:05:00.261Z,19.49
2023-05-19T18:08:07.070Z,19.34
2023-05-19T18:11:13.413Z,19.46
2023-05-19T18:14:15.868Z,19.38
2023-05-19T18:17:18.625Z,19.23
2023-05-19T18:20:21.308Z,19.28
2023-05-19T18:23:24.172Z,19.23
2023-05-19T18:26:26.664Z,19.22
2023-05-19T18:29:29.372Z,19.16
2023-05-19T18:32:33.455Z,19.10
2023-05-19T18:35:37.506Z,18.95
2023-05-19T18:38:41.114Z,18.98
2023-05-19T18:41:43.832Z,18.75
2023-05-19T18:44:47.470Z,18.80
2023-05-19T18:47:50.786Z,18.73
2023-05-19T18:50:53.223Z,18.67
2023-05-19T18:53:56.151Z,18.55
2023-05-19T18:57:01.350Z,18.57
2023-05-19T19:00:04.464Z,18.52
2023-05-19T19:03:06.916Z,18.33
2023-05-19T19:06:09.623Z,18.43
2023-05-19T19:09:12.638Z,18.28
2023-05-19T19:12:16.497Z,18.34
2023-05-19T19:15:20.306Z,18.19
2023-05-19T19:18:23.002Z,18.19
2023-05-19T19:21:25.815Z,18.24
2023-05-19T19:24:28.765Z,18.06
2023-05-19T19:27:31.442Z,18.17
2023-05-19T19:30:34.378Z,18.16
2023-05-19T19:33:37.022Z,18.11
2023-05-19T19:36:39.790Z,18.10
2023-05-19T19:39:42.377Z,18.07
2023-05-19T19:42:45.092Z,18.11
2023-05-19T19:45:47.466Z,17.99
2023-05-19T19:48:50.136Z,17.99
2023-05-19T19:51:52.676Z,18.12
2023-05-19T19:54:58.278Z,18.11
2023-05-19T19:58:00.907Z,17.99
2023-05-19T20:01:04.499Z,18.15
2023-05-19T20:04:10.574Z,18.03
2023-05-19T20:07:13.210Z,18.17
2023-05-19T20:10:16.152Z,17.79
2023-05-19T20:13:21.330Z,18.03
2023-05-19T20:16:24.414Z,18.12
2023-05-19T20:19:27.062Z,18.03
2023-05-19T20:22:29.886Z,18.08
2023-05-19T20:25:32.989Z,17.97
2023-05-19T20:28:35.933Z,17.72
2023-05-19T20:31:38.529Z,18.05
2023-05-19T20:34:41.536Z,18.06
2023-05-19T20:37:43.954Z,18.06
2023-05-19T20:40:47.744Z,17.95
2023-05-19T20:43:50.388Z,18.07
2023-05-19T20:46:54.898Z,18.04
2023-05-19T20:49:58.825Z,17.90
2023-05-19T20:53:01.482Z,17.92
2023-05-19T20:56:05.281Z,17.91
2023-05-19T20:59:07.929Z,18.02
2023-05-19T21:02:11.662Z,18.03
2023-05-19T21:05:14.463Z,18.03
2023-05-19T21:08:16.942Z,17.98
2023-05-19T21:11:19.600Z,17.87
2023-05-19T21:14:22.628Z,17.86
2023-05-19T21:17:25.385Z,17.95
2023-05-19T21:20:29.218Z,17.82
2023-05-19T21:23:32.009Z,17.88
2023-05-19T21:26:34.723Z,17.86
2023-05-19T21:29:37.415Z,17.81
2023-05-19T21:32:40.019Z,17.76
2023-05-19T21:35:42.732Z,17.71
2023-05-19T21:38:45.095Z,17.61
2023-05-19T21:41:47.830Z,17.67
2023-05-19T21:44:50.232Z,17.69
2023-05-19T21:47:53.024Z,17.60
2023-05-19T21:50:56.138Z,17.51
2023-05-19T21:54:02.715Z,17.64
2023-05-19T21:57:05.660Z,17.59
2023-05-19T22:00:12.938Z,17.61
2023-05-19T22:03:15.778Z,17.44
2023-05-19T22:06:18.206Z,17.54
2023-05-19T22:09:21.712Z,17.38
2023-05-19T22:12:24.288Z,17.46
2023-05-19T22:15:27.048Z,17.42
2023-05-19T22:18:29.454Z,17.42
2023-05-19T22:21:32.435Z,17.40
2023-05-19T22:24:34.818Z,17.24
2023-05-19T22:27:40.701Z,17.31
2023-05-19T22:30:44.071Z,17.29
2023-05-19T22:33:46.834Z,17.28
2023-05-19T22:36:49.233Z,17.21
2023-05-19T22:39:51.898Z,17.19
2023-05-19T22:42:54.384Z,17.18
2023-05-19T22:45:57.104Z,17.12
2023-05-19T22:48:59.582Z,17.05
2023-05-19T22:52:02.450Z,17.04
2023-05-19T22:55:05.211Z,16.99
2023-05-19T22:58:07.948Z,16.97
2023-05-19T23:01:10.402Z,16.98
2023-05-19T23:04:13.251Z,16.99
2023-05-19T23:07:15.819Z,16.83
2023-05-19T23:10:18.680Z,16.97
2023-05-19T23:13:21.157Z,16.96
2023-05-19T23:16:23.865Z,16.95
2023-05-19T23:19:27.879Z,16.98
2023-05-19T23:22:30.817Z,16.97
2023-05-19T23:25:33.390Z,16.98
2023-05-19T23:28:36.205Z,16.99
2023-05-19T23:31:38.945Z,16.98
2023-05-19T23:34:41.740Z,16.97
2023-05-19T23:37:44.580Z,16.99
2023-05-19T23:40:47.256Z,16.98
2023-05-19T23:43:49.634Z,16.96
2023-05-19T23:46:52.380Z,16.91
2023-05-19T23:49:54.780Z,16.92
2023-05-19T23:52:57.478Z,16.84
2023-05-19T23:55:59.872Z,16.83
2023-05-19T23:59:02.540Z,16.83
